To NAV CANADA Home Page Login to a new session Search on AWWS site Feedback and Comments Disclaimer Vers la page française équivalente Tips FAQ What's new on the site To the Forecasts and Observations / NOTAM section To "File a Flight Plan" website Publications and other links Update of the User's profile FIC Telephone Numbers My Weather Data Folder Route Weather Data Regional Weather Data Local Weather Data To the Forecasts and Observations / NOTAM section
Request Generated 02/12/2016 at 17:57:17 UTC . Weather information available at that time is displayed.

METAR/TAF

EUREKA/NU    

METAR CWEU 121700Z 00000KT 15SM SCT080 M39/M43 A3041 RMK AC1 IC SLP300=
METAR CWEU 121600Z 10002KT 15SM FEW080 SCT200 M40/M43 A3041 RMK AC1CI1 IC SLP300=
METAR CWEU 121500Z CCA 07003KT 15SM FEW080 M39/M43 A3041 RMK AC1 SLP299=
METAR CWEU 121500Z 07003KT 15SM FEW080 M39/M43 A3041 RMK AC1 SLP299=

TAF CYEU 121738Z 1218/1302 ADVISORY OFFSITE VRB03KT P6SM SCT080
RMK NXT FCST BY 130000Z=
Your time UTC time
Weather data provided by Environment Canada and NAV CANADA